Aviation Digital Data Service (ADDS)

Output produced by METARs form (1425 UTC 23 October 2014)
found at http://aviationweather.gov/adds/metars/
 
KVQQ 231121Z 2312/2412 35004KT P6SM SKC 
     FM231500 03008KT P6SM SKC 
     FM240000 00000KT P6SM SKC